West Hempstead, New York
Current Conditions -  °F | °C
As of 9:51 PM on Wednesday 22 Oct 2014 (Local Time) from KJFK Reporting Station
Light Rain Light Rain  
Wind Chill: 12°   Ceiling: 2400
Heat Index: 12°   Visibility: 10mi
Dew Point:   Wind: 18mph
Humidity: 83%   Direction: 360°N
Pressure: 29.73"   Gusts: 26mph
Location:  40.7°N, 73.65°W
Report Text: KJFK 230151Z 36016G23KT 10SM -RA SCT016 OVC024 12/09 A2973 RMK AO2 PK WND 36034/0120 CIG 017 W SLP068 P0003 T01170089 $
Loading
Personal Weather Stations






























Interactive Weather Map
Tropical Storm Tracking
New forecast layout! Learn more

10-Day Weather Forecast

Advertisements
Track Severe Weather on mobile